createdAt,value
2022-12-27T00:02:21.176Z,7.80
2022-12-27T00:04:48.121Z,6.78
2022-12-27T00:07:14.943Z,6.22
2022-12-27T00:09:41.734Z,7.45
2022-12-27T00:12:08.601Z,7.72
2022-12-27T00:14:35.378Z,7.38
2022-12-27T00:17:02.148Z,6.65
2022-12-27T00:19:28.876Z,7.57
2022-12-27T00:21:55.691Z,6.35
2022-12-27T00:24:22.493Z,6.90
2022-12-27T00:26:49.616Z,6.25
2022-12-27T00:29:16.543Z,6.07
2022-12-27T00:31:43.484Z,7.05
2022-12-27T00:34:11.141Z,6.97
2022-12-27T00:36:38.052Z,7.60
2022-12-27T00:39:05.139Z,7.13
2022-12-27T00:41:32.631Z,5.75
2022-12-27T00:43:59.440Z,6.25
2022-12-27T00:46:26.177Z,6.03
2022-12-27T00:48:53.437Z,6.07
2022-12-27T00:51:22.717Z,6.90
2022-12-27T00:53:50.428Z,8.13
2022-12-27T00:56:26.577Z,7.40
2022-12-27T00:58:58.959Z,7.35
2022-12-27T01:01:27.425Z,7.47
2022-12-27T01:03:54.663Z,7.18
2022-12-27T01:06:23.486Z,7.60
2022-12-27T01:08:50.586Z,8.30
2022-12-27T01:11:18.702Z,7.63
2022-12-27T01:13:45.891Z,7.82
2022-12-27T01:16:18.662Z,7.68
2022-12-27T01:18:45.970Z,9.35
2022-12-27T01:21:15.766Z,9.02
2022-12-27T01:23:42.922Z,8.40
2022-12-27T01:26:16.360Z,8.38
2022-12-27T01:28:43.774Z,8.27
2022-12-27T01:31:15.667Z,7.43
2022-12-27T01:33:42.709Z,7.95
2022-12-27T01:36:14.503Z,8.50
2022-12-27T01:38:44.672Z,7.72
2022-12-27T01:41:43.815Z,7.57
2022-12-27T01:44:39.101Z,8.05
2022-12-27T01:47:30.004Z,5.82
2022-12-27T01:50:06.813Z,7.75
2022-12-27T01:52:40.663Z,8.63
2022-12-27T01:55:46.296Z,8.23
2022-12-27T01:58:23.936Z,8.75
2022-12-27T02:00:51.746Z,7.50
2022-12-27T02:03:25.683Z,7.75
2022-12-27T02:05:53.102Z,7.47
2022-12-27T02:08:28.129Z,8.52
2022-12-27T02:10:55.535Z,5.53
2022-12-27T02:13:22.395Z,7.38
2022-12-27T02:15:49.328Z,6.28
2022-12-27T02:18:16.356Z,7.07
2022-12-27T02:21:09.214Z,5.47
2022-12-27T02:24:03.808Z,7.22
2022-12-27T02:26:42.710Z,6.60
2022-12-27T02:29:22.972Z,5.95
2022-12-27T02:32:09.107Z,6.30
2022-12-27T02:34:59.738Z,6.88
2022-12-27T02:37:29.872Z,6.03
2022-12-27T02:40:17.485Z,5.88
2022-12-27T02:43:04.882Z,5.13
2022-12-27T02:45:54.510Z,6.35
2022-12-27T02:48:39.970Z,5.43
2022-12-27T02:51:44.476Z,6.30
2022-12-27T02:54:51.866Z,5.38
2022-12-27T02:57:40.111Z,6.00
2022-12-27T03:00:29.607Z,5.90
2022-12-27T03:03:37.239Z,4.57
2022-12-27T03:06:27.787Z,5.22
2022-12-27T03:09:42.986Z,6.07
2022-12-27T03:12:43.241Z,5.03
2022-12-27T03:15:48.228Z,5.78
2022-12-27T03:18:21.636Z,5.53
2022-12-27T03:21:08.364Z,5.47
2022-12-27T03:23:55.721Z,5.05
2022-12-27T03:26:23.513Z,5.28
2022-12-27T03:29:09.461Z,6.25
2022-12-27T03:31:58.599Z,5.43
2022-12-27T03:34:35.669Z,4.97
2022-12-27T03:37:24.992Z,5.25
2022-12-27T03:40:15.122Z,5.43
2022-12-27T03:43:08.612Z,5.38
2022-12-27T03:46:07.072Z,6.63
2022-12-27T03:48:40.616Z,6.10
2022-12-27T03:51:08.125Z,6.35
2022-12-27T03:53:38.662Z,6.28
2022-12-27T03:56:06.862Z,5.45
2022-12-27T03:58:33.858Z,5.75
2022-12-27T04:01:00.707Z,5.88
2022-12-27T04:03:27.507Z,6.03
2022-12-27T04:05:54.390Z,6.00
2022-12-27T04:08:39.626Z,5.95
2022-12-27T04:11:24.903Z,6.13
2022-12-27T04:14:10.145Z,6.22
2022-12-27T04:16:55.621Z,5.85
2022-12-27T04:19:41.222Z,5.47
2022-12-27T04:22:26.587Z,5.10
2022-12-27T04:25:11.905Z,5.97
2022-12-27T04:27:57.406Z,5.35
2022-12-27T04:30:42.917Z,5.75
2022-12-27T04:33:28.315Z,5.40
2022-12-27T04:35:55.141Z,5.97
2022-12-27T04:38:21.896Z,5.60
2022-12-27T04:41:07.282Z,6.32
2022-12-27T04:43:52.316Z,5.85
2022-12-27T04:46:42.521Z,5.88
2022-12-27T04:49:36.473Z,5.53
2022-12-27T04:52:21.766Z,5.63
2022-12-27T04:54:57.567Z,6.47
2022-12-27T04:57:25.701Z,6.45
2022-12-27T05:00:11.101Z,6.97
2022-12-27T05:02:38.377Z,7.70
2022-12-27T05:05:05.670Z,6.57
2022-12-27T05:07:50.926Z,5.32
2022-12-27T05:10:36.328Z,5.75
2022-12-27T05:13:21.574Z,5.32
2022-12-27T05:15:49.246Z,6.05
2022-12-27T05:18:16.367Z,5.97
2022-12-27T05:20:43.124Z,6.60
2022-12-27T05:23:29.207Z,7.18
2022-12-27T05:25:56.038Z,7.95
2022-12-27T05:28:23.063Z,7.72
2022-12-27T05:30:49.896Z,8.15
2022-12-27T05:33:16.768Z,6.28
2022-12-27T05:35:43.619Z,5.28
2022-12-27T05:38:10.625Z,6.43
2022-12-27T05:40:37.375Z,6.25
2022-12-27T05:43:04.541Z,6.47
2022-12-27T05:45:31.535Z,6.10
2022-12-27T05:47:59.897Z,6.40
2022-12-27T05:50:27.340Z,5.38
2022-12-27T05:53:07.350Z,5.78
2022-12-27T05:55:34.033Z,5.65
2022-12-27T05:58:00.816Z,5.70
2022-12-27T06:00:27.622Z,6.53
2022-12-27T06:02:54.573Z,5.18
2022-12-27T06:05:21.588Z,5.82
2022-12-27T06:07:48.365Z,6.75
2022-12-27T06:10:15.230Z,7.00
2022-12-27T06:12:42.276Z,7.32
2022-12-27T06:15:09.741Z,7.57
2022-12-27T06:17:36.552Z,6.72
2022-12-27T06:20:03.397Z,6.90
2022-12-27T06:22:30.166Z,7.72
2022-12-27T06:24:56.949Z,6.60
2022-12-27T06:27:23.715Z,7.13
2022-12-27T06:29:50.389Z,7.30
2022-12-27T06:32:17.911Z,7.22
2022-12-27T06:34:45.343Z,6.63
2022-12-27T06:37:12.463Z,6.82
2022-12-27T06:39:39.265Z,7.65
2022-12-27T06:42:06.039Z,8.75
2022-12-27T06:44:32.851Z,7.22
2022-12-27T06:46:59.692Z,8.77
2022-12-27T06:49:26.498Z,7.38
2022-12-27T06:51:59.352Z,9.07
2022-12-27T06:54:27.092Z,7.65
2022-12-27T06:56:53.960Z,8.68
2022-12-27T06:59:20.693Z,8.98
2022-12-27T07:01:47.522Z,5.97
2022-12-27T07:04:14.412Z,6.65
2022-12-27T07:06:41.340Z,7.13
2022-12-27T07:09:08.880Z,7.15
2022-12-27T07:11:37.045Z,7.22
2022-12-27T07:14:04.186Z,7.35
2022-12-27T07:16:31.293Z,9.98
2022-12-27T07:18:59.198Z,10.07
2022-12-27T07:21:28.377Z,7.22
2022-12-27T07:23:55.622Z,8.45
2022-12-27T07:26:26.986Z,7.40
2022-12-27T07:28:55.367Z,8.70
2022-12-27T07:31:24.553Z,6.43
2022-12-27T07:33:51.849Z,6.97
2022-12-27T07:36:21.437Z,8.68
2022-12-27T07:38:48.354Z,8.50
2022-12-27T07:41:15.764Z,7.10
2022-12-27T07:43:44.432Z,9.00
2022-12-27T07:46:16.933Z,7.25
2022-12-27T07:48:43.906Z,6.32
2022-12-27T07:51:11.350Z,7.80
2022-12-27T07:53:38.720Z,7.82
2022-12-27T07:56:11.020Z,6.93
2022-12-27T07:58:39.383Z,10.65
2022-12-27T08:01:07.130Z,13.32
2022-12-27T08:03:35.832Z,14.25
2022-12-27T08:06:03.110Z,15.50
2022-12-27T08:08:40.381Z,15.80
2022-12-27T08:11:07.476Z,15.32
2022-12-27T08:13:34.586Z,13.48
2022-12-27T08:16:01.876Z,15.77
2022-12-27T08:18:28.840Z,13.63
2022-12-27T08:20:55.645Z,14.05
2022-12-27T08:23:22.501Z,13.82
2022-12-27T08:25:49.389Z,15.27
2022-12-27T08:28:17.659Z,17.10
2022-12-27T08:30:45.598Z,16.45
2022-12-27T08:33:12.982Z,17.00
2022-12-27T08:35:54.260Z,15.32
2022-12-27T08:38:21.512Z,13.90
2022-12-27T08:40:48.281Z,16.30
2022-12-27T08:43:15.297Z,14.23
2022-12-27T08:45:42.291Z,13.15
2022-12-27T08:48:09.189Z,15.70
2022-12-27T08:50:36.200Z,15.80
2022-12-27T08:53:04.187Z,14.63
2022-12-27T08:55:31.455Z,13.70
2022-12-27T08:58:02.344Z,11.77
2022-12-27T09:00:30.311Z,8.73
2022-12-27T09:02:57.705Z,9.38
2022-12-27T09:05:25.768Z,9.60
2022-12-27T09:07:52.830Z,8.25
2022-12-27T09:10:20.563Z,7.65
2022-12-27T09:12:47.548Z,6.55
2022-12-27T09:15:14.537Z,5.00
2022-12-27T09:17:41.588Z,5.70
2022-12-27T09:20:09.571Z,4.97
2022-12-27T09:22:36.355Z,6.70
2022-12-27T09:25:03.208Z,8.25
2022-12-27T09:27:29.990Z,6.32
2022-12-27T09:29:56.740Z,6.75
2022-12-27T09:32:27.488Z,5.97
2022-12-27T09:34:54.806Z,5.82
2022-12-27T09:37:21.798Z,6.20
2022-12-27T09:39:48.555Z,5.53
2022-12-27T09:42:56.227Z,5.50
2022-12-27T09:45:36.018Z,6.00
2022-12-27T09:48:06.031Z,7.30
2022-12-27T09:50:42.030Z,6.97
2022-12-27T09:53:17.713Z,7.97
2022-12-27T09:55:47.367Z,7.40
2022-12-27T09:58:34.734Z,7.90
2022-12-27T10:01:02.368Z,7.30
2022-12-27T10:03:30.217Z,6.95
2022-12-27T10:09:10.889Z,4.97
2022-12-27T10:11:43.581Z,4.65
2022-12-27T10:14:22.541Z,4.95
2022-12-27T10:17:13.435Z,5.18
2022-12-27T10:20:04.717Z,5.22
2022-12-27T10:22:55.352Z,5.75
2022-12-27T10:25:23.578Z,5.18
2022-12-27T10:27:53.614Z,4.97
2022-12-27T10:30:21.646Z,6.20
2022-12-27T10:32:48.993Z,6.63
2022-12-27T10:35:17.551Z,5.78
2022-12-27T10:37:45.157Z,7.15
2022-12-27T10:40:20.370Z,7.47
2022-12-27T10:42:53.389Z,6.63
2022-12-27T10:45:39.281Z,7.28
2022-12-27T10:48:18.531Z,7.03
2022-12-27T10:50:47.693Z,8.45
2022-12-27T10:53:38.759Z,8.02
2022-12-27T10:56:34.949Z,8.38
2022-12-27T10:59:06.945Z,7.32
2022-12-27T11:01:35.045Z,8.10
2022-12-27T11:04:19.829Z,8.93
2022-12-27T11:06:50.151Z,9.18
2022-12-27T11:09:27.791Z,8.20
2022-12-27T11:12:23.848Z,7.68
2022-12-27T11:14:53.907Z,8.15
2022-12-27T11:17:43.643Z,8.65
2022-12-27T11:20:38.485Z,8.30
2022-12-27T11:23:14.311Z,8.45
2022-12-27T11:25:52.620Z,8.02
2022-12-27T11:28:44.912Z,9.32
2022-12-27T11:31:14.038Z,8.85
2022-12-27T11:33:59.376Z,8.80
2022-12-27T11:36:40.711Z,9.93
2022-12-27T11:39:08.513Z,10.77
2022-12-27T11:42:02.106Z,12.40
2022-12-27T11:47:02.043Z,11.45
2022-12-27T11:49:36.130Z,11.40
2022-12-27T11:52:02.828Z,11.88
2022-12-27T11:54:47.907Z,11.85
2022-12-27T11:57:14.648Z,12.32
2022-12-27T12:00:03.481Z,13.93
2022-12-27T12:02:51.905Z,13.23
2022-12-27T12:06:02.521Z,13.60
2022-12-27T12:09:05.471Z,14.02
2022-12-27T12:11:54.838Z,13.50
2022-12-27T12:14:31.258Z,12.23
2022-12-27T12:17:22.320Z,11.77
2022-12-27T12:19:54.831Z,11.70
2022-12-27T12:22:51.457Z,14.20
2022-12-27T12:25:40.475Z,12.25
2022-12-27T12:28:57.136Z,11.23
2022-12-27T12:31:36.843Z,10.52
2022-12-27T12:34:34.686Z,10.95
2022-12-27T12:37:36.417Z,11.63
2022-12-27T12:40:32.540Z,15.63
2022-12-27T12:43:17.687Z,14.45
2022-12-27T12:45:47.272Z,16.40
2022-12-27T12:48:20.957Z,10.85
2022-12-27T12:51:05.889Z,8.20
2022-12-27T12:53:35.736Z,17.00
2022-12-27T12:56:33.984Z,9.13
2022-12-27T12:59:09.212Z,12.00
2022-12-27T13:02:08.441Z,4.70
2022-12-27T13:04:41.519Z,9.35
2022-12-27T13:07:45.240Z,5.47
2022-12-27T13:10:33.612Z,7.45
2022-12-27T13:13:30.266Z,9.45
2022-12-27T13:16:14.809Z,9.32
2022-12-27T13:19:19.159Z,5.03
2022-12-27T13:22:07.405Z,4.47
2022-12-27T13:24:46.204Z,2.53
2022-12-27T13:27:35.397Z,4.10
2022-12-27T13:30:21.709Z,2.85
2022-12-27T13:33:03.592Z,3.78
2022-12-27T13:36:01.058Z,3.22
2022-12-27T13:38:44.562Z,3.20
2022-12-27T13:41:30.864Z,3.00
2022-12-27T13:44:12.209Z,4.13
2022-12-27T13:46:57.749Z,3.25
2022-12-27T13:49:30.701Z,2.90
2022-12-27T13:52:22.893Z,3.53
2022-12-27T13:55:27.927Z,4.00
2022-12-27T13:58:36.409Z,3.30
2022-12-27T14:01:30.336Z,3.28
2022-12-27T14:04:59.270Z,4.03
2022-12-27T14:07:43.802Z,2.80
2022-12-27T14:10:19.511Z,2.40
2022-12-27T14:12:52.063Z,3.28
2022-12-27T14:15:22.226Z,2.88
2022-12-27T14:17:52.142Z,3.67
2022-12-27T14:20:46.367Z,3.97
2022-12-27T14:26:10.090Z,3.22
2022-12-27T14:29:03.048Z,3.78
2022-12-27T14:31:58.145Z,4.05
2022-12-27T14:34:59.514Z,4.55
2022-12-27T14:37:55.770Z,12.23
2022-12-27T14:40:44.924Z,2.40
2022-12-27T14:43:49.378Z,3.22
2022-12-27T14:46:31.035Z,4.03
2022-12-27T14:49:31.633Z,3.03
2022-12-27T14:52:10.476Z,3.03
2022-12-27T14:55:03.426Z,3.20
2022-12-27T14:57:56.205Z,4.55
2022-12-27T15:00:24.597Z,4.20
2022-12-27T15:03:00.780Z,3.22
2022-12-27T15:05:49.682Z,3.75
2022-12-27T15:08:22.242Z,3.53
2022-12-27T15:10:48.976Z,2.65
2022-12-27T15:13:32.286Z,3.00
2022-12-27T15:16:49.871Z,3.40
2022-12-27T15:19:41.549Z,2.25
2022-12-27T15:22:17.735Z,2.90
2022-12-27T15:25:05.197Z,3.03
2022-12-27T15:27:40.939Z,3.80
2022-12-27T15:30:24.275Z,3.17
2022-12-27T15:33:17.317Z,3.45
2022-12-27T15:35:55.810Z,1.85
2022-12-27T15:38:41.374Z,1.42
2022-12-27T15:41:08.212Z,1.88
2022-12-27T15:43:58.130Z,2.15
2022-12-27T15:46:43.734Z,2.20
2022-12-27T15:49:41.423Z,1.48
2022-12-27T15:52:17.175Z,2.08
2022-12-27T15:54:59.200Z,2.13
2022-12-27T15:57:44.447Z,2.17
2022-12-27T16:00:15.806Z,4.05
2022-12-27T16:02:48.581Z,3.75
2022-12-27T16:05:22.065Z,4.03
2022-12-27T16:08:00.750Z,3.80
2022-12-27T16:10:33.648Z,2.38
2022-12-27T16:13:09.621Z,2.45
2022-12-27T16:15:47.793Z,2.13
2022-12-27T16:18:23.922Z,3.08
2022-12-27T16:21:13.907Z,3.97
2022-12-27T16:23:46.848Z,6.82
2022-12-27T16:26:16.656Z,5.53
2022-12-27T16:28:54.438Z,2.50
2022-12-27T16:31:28.939Z,4.85
2022-12-27T16:33:56.969Z,2.28
2022-12-27T16:36:29.880Z,2.85
2022-12-27T16:39:05.877Z,2.90
2022-12-27T16:41:35.475Z,2.30
2022-12-27T16:44:02.192Z,3.28
2022-12-27T16:46:53.812Z,3.55
2022-12-27T16:49:49.143Z,3.38
2022-12-27T16:52:40.674Z,3.58
2022-12-27T16:55:31.570Z,4.15
2022-12-27T16:58:29.086Z,4.82
2022-12-27T17:00:57.763Z,4.00
2022-12-27T17:03:36.920Z,4.25
2022-12-27T17:06:33.055Z,4.28
2022-12-27T17:09:09.829Z,3.78
2022-12-27T17:11:41.254Z,4.32
2022-12-27T17:14:18.730Z,4.88
2022-12-27T17:16:51.666Z,5.35
2022-12-27T17:19:35.049Z,5.28
2022-12-27T17:22:03.925Z,5.63
2022-12-27T17:24:30.875Z,6.43
2022-12-27T17:27:09.942Z,5.75
2022-12-27T17:29:55.573Z,5.90
2022-12-27T17:32:48.000Z,7.15
2022-12-27T17:35:49.994Z,6.85
2022-12-27T17:38:35.298Z,5.18
2022-12-27T17:41:49.302Z,4.97
2022-12-27T17:44:44.013Z,3.65
2022-12-27T17:47:29.434Z,3.22
2022-12-27T17:49:59.531Z,4.57
2022-12-27T17:52:45.377Z,3.53
2022-12-27T17:55:43.383Z,3.97
2022-12-27T17:58:12.762Z,2.88
2022-12-27T18:00:57.463Z,2.03
2022-12-27T18:03:32.727Z,1.80
2022-12-27T18:05:59.618Z,1.77
2022-12-27T18:08:29.604Z,1.42
2022-12-27T18:10:57.547Z,1.77
2022-12-27T18:13:26.235Z,2.35
2022-12-27T18:15:53.631Z,1.20
2022-12-27T18:18:28.855Z,1.20
2022-12-27T18:21:00.894Z,0.73
2022-12-27T18:23:27.918Z,1.55
2022-12-27T18:26:06.699Z,1.38
2022-12-27T18:28:36.043Z,1.30
2022-12-27T18:31:21.062Z,1.10
2022-12-27T18:33:53.019Z,1.00
2022-12-27T18:36:56.571Z,0.73
2022-12-27T18:39:30.419Z,0.60
2022-12-27T18:41:58.646Z,0.73
2022-12-27T18:44:27.971Z,0.93
2022-12-27T18:46:59.958Z,1.48
2022-12-27T18:49:32.756Z,1.58
2022-12-27T18:52:00.356Z,2.38
2022-12-27T18:54:32.362Z,1.77
2022-12-27T18:57:02.253Z,1.00
2022-12-27T18:59:32.685Z,1.00
2022-12-27T19:02:01.519Z,0.90
2022-12-27T19:04:32.567Z,1.10
2022-12-27T19:07:14.638Z,0.80
2022-12-27T19:09:54.264Z,1.00
2022-12-27T19:12:36.769Z,1.05
2022-12-27T19:15:04.828Z,0.50
2022-12-27T19:17:32.408Z,0.65
2022-12-27T19:20:04.094Z,0.50
2022-12-27T19:22:53.202Z,2.85
2022-12-27T19:25:33.419Z,3.00
2022-12-27T19:28:04.733Z,2.72
2022-12-27T19:30:47.494Z,4.47
2022-12-27T19:33:16.594Z,3.80
2022-12-27T19:35:43.537Z,4.18
2022-12-27T19:38:24.437Z,4.55
2022-12-27T19:41:01.299Z,5.15
2022-12-27T19:43:41.557Z,3.38
2022-12-27T19:46:13.139Z,2.67
2022-12-27T19:48:40.398Z,2.70
2022-12-27T19:51:07.860Z,2.13
2022-12-27T19:53:39.515Z,1.90
2022-12-27T19:56:09.905Z,2.47
2022-12-27T19:58:36.850Z,1.30
2022-12-27T20:01:03.904Z,1.88
2022-12-27T20:03:30.792Z,0.77
2022-12-27T20:06:14.394Z,1.52
2022-12-27T20:08:48.951Z,1.48
2022-12-27T20:11:21.193Z,1.80
2022-12-27T20:13:48.562Z,1.63
2022-12-27T20:16:18.020Z,1.92
2022-12-27T20:18:45.524Z,1.42
2022-12-27T20:21:17.820Z,1.15
2022-12-27T20:23:44.781Z,1.70
2022-12-27T20:26:12.579Z,2.05
2022-12-27T20:28:39.495Z,1.35
2022-12-27T20:31:10.913Z,2.15
2022-12-27T20:33:37.687Z,1.80
2022-12-27T20:36:05.075Z,1.90
2022-12-27T20:38:32.517Z,1.63
2022-12-27T20:41:09.957Z,1.80
2022-12-27T20:43:37.156Z,1.55
2022-12-27T20:46:08.934Z,1.30
2022-12-27T20:48:39.895Z,1.17
2022-12-27T20:51:08.067Z,2.08
2022-12-27T20:53:35.187Z,1.10
2022-12-27T20:56:03.086Z,1.95
2022-12-27T20:58:31.611Z,1.90
2022-12-27T21:00:58.997Z,2.13
2022-12-27T21:03:25.976Z,2.20
2022-12-27T21:05:52.751Z,2.10
2022-12-27T21:08:19.552Z,2.45
2022-12-27T21:10:46.381Z,1.75
2022-12-27T21:13:13.286Z,2.03
2022-12-27T21:15:42.529Z,2.05
2022-12-27T21:18:09.530Z,2.05
2022-12-27T21:20:36.401Z,2.53
2022-12-27T21:23:03.189Z,2.05
2022-12-27T21:25:29.996Z,2.53
2022-12-27T21:27:56.739Z,2.30
2022-12-27T21:30:23.491Z,2.28
2022-12-27T21:32:50.259Z,2.22
2022-12-27T21:35:17.065Z,2.40
2022-12-27T21:37:43.854Z,1.63
2022-12-27T21:40:11.391Z,2.63
2022-12-27T21:42:38.154Z,2.72
2022-12-27T21:45:05.611Z,2.55
2022-12-27T21:47:32.434Z,2.10
2022-12-27T21:49:59.193Z,2.60
2022-12-27T21:52:26.091Z,2.45
2022-12-27T21:54:52.909Z,2.80
2022-12-27T21:57:19.640Z,2.53
2022-12-27T21:59:46.439Z,3.50
2022-12-27T22:02:13.570Z,2.13
2022-12-27T22:04:40.519Z,2.50
2022-12-27T22:07:07.284Z,2.67
2022-12-27T22:09:34.127Z,2.72
2022-12-27T22:12:00.898Z,3.17
2022-12-27T22:14:30.592Z,3.30
2022-12-27T22:17:02.157Z,3.28
2022-12-27T22:21:55.747Z,2.80
2022-12-27T22:24:22.565Z,3.13
2022-12-27T22:26:50.342Z,3.10
2022-12-27T22:29:17.902Z,3.55
2022-12-27T22:31:44.725Z,3.20
2022-12-27T22:34:11.534Z,3.67
2022-12-27T22:36:38.355Z,3.05
2022-12-27T22:39:05.885Z,3.70
2022-12-27T22:41:34.518Z,3.20
2022-12-27T22:44:04.808Z,3.80
2022-12-27T22:46:58.451Z,3.83
2022-12-27T22:49:18.797Z,3.72
2022-12-27T22:51:45.581Z,4.30
2022-12-27T22:54:12.318Z,3.78
2022-12-27T22:56:40.745Z,3.80
2022-12-27T22:59:09.453Z,3.08
2022-12-27T23:01:36.442Z,3.55
2022-12-27T23:04:05.510Z,4.60
2022-12-27T23:06:34.071Z,4.03
2022-12-27T23:09:02.127Z,3.30
2022-12-27T23:11:31.765Z,3.58
2022-12-27T23:14:00.898Z,3.67
2022-12-27T23:16:28.285Z,3.42
2022-12-27T23:18:55.114Z,4.03
2022-12-27T23:21:24.559Z,3.92
2022-12-27T23:23:52.190Z,4.43
2022-12-27T23:26:22.393Z,4.55
2022-12-27T23:28:50.868Z,4.50
2022-12-27T23:31:19.152Z,3.78
2022-12-27T23:33:46.965Z,3.97
2022-12-27T23:36:14.654Z,4.63
2022-12-27T23:38:42.450Z,3.85
2022-12-27T23:41:13.939Z,3.88
2022-12-27T23:43:56.507Z,3.72
2022-12-27T23:46:27.674Z,3.95
2022-12-27T23:48:56.918Z,4.78
2022-12-27T23:51:24.079Z,5.25
2022-12-27T23:53:51.085Z,4.35
2022-12-27T23:56:36.952Z,4.35
2022-12-27T23:59:06.538Z,3.85
